createdAt,value
2018-03-03T00:00:14.693Z,2.10
2018-03-03T00:02:42.939Z,2.30
2018-03-03T00:05:10.417Z,2.30
2018-03-03T00:07:37.914Z,2.30
2018-03-03T00:10:06.156Z,2.60
2018-03-03T00:12:33.632Z,2.50
2018-03-03T00:15:01.130Z,2.40
2018-03-03T00:17:28.652Z,2.70
2018-03-03T00:19:56.908Z,2.10
2018-03-03T00:22:36.239Z,2.00
2018-03-03T00:25:03.710Z,2.20
2018-03-03T00:27:31.288Z,2.30
2018-03-03T00:29:59.921Z,1.60
2018-03-03T00:32:27.402Z,1.60
2018-03-03T00:34:55.054Z,1.70
2018-03-03T00:37:22.536Z,1.50
2018-03-03T00:39:50.008Z,1.60
2018-03-03T00:42:17.504Z,1.60
2018-03-03T00:44:44.998Z,1.50
2018-03-03T00:47:12.476Z,1.80
2018-03-03T00:49:40.766Z,2.10
2018-03-03T00:52:09.009Z,2.10
2018-03-03T00:54:36.484Z,2.10
2018-03-03T00:57:03.981Z,2.10
2018-03-03T00:59:32.215Z,1.60
2018-03-03T01:01:59.685Z,1.60
2018-03-03T01:04:27.188Z,1.80
2018-03-03T01:06:54.661Z,1.70
2018-03-03T01:09:22.131Z,2.00
2018-03-03T01:11:49.624Z,2.00
2018-03-03T01:14:17.865Z,2.10
2018-03-03T01:16:45.365Z,2.00
2018-03-03T01:19:12.849Z,1.90
2018-03-03T01:21:40.332Z,1.90
2018-03-03T01:24:07.824Z,1.90
2018-03-03T01:26:36.805Z,1.50
2018-03-03T01:29:04.278Z,1.50
2018-03-03T01:31:32.908Z,1.50
2018-03-03T01:34:00.390Z,1.40
2018-03-03T01:36:27.879Z,1.10
2018-03-03T01:38:56.144Z,1.40
2018-03-03T01:41:23.616Z,1.30
2018-03-03T01:43:51.089Z,1.60
2018-03-03T01:46:18.589Z,1.60
2018-03-03T01:48:46.116Z,1.60
2018-03-03T01:51:26.406Z,1.40
2018-03-03T01:53:53.879Z,1.30
2018-03-03T01:56:22.533Z,1.40
2018-03-03T01:58:50.796Z,1.20
2018-03-03T02:01:19.036Z,1.10
2018-03-03T02:03:46.516Z,1.00
2018-03-03T02:06:14.008Z,0.90
2018-03-03T02:08:42.247Z,1.00
2018-03-03T02:11:09.725Z,1.00
2018-03-03T02:13:38.360Z,1.20
2018-03-03T02:16:05.845Z,1.10
2018-03-03T02:18:33.322Z,1.00
2018-03-03T02:21:01.601Z,1.50
2018-03-03T02:23:29.840Z,1.00
2018-03-03T02:25:57.309Z,1.00
2018-03-03T02:28:25.941Z,0.80
2018-03-03T02:30:54.181Z,0.80
2018-03-03T02:33:21.664Z,0.70
2018-03-03T02:35:49.922Z,1.00
2018-03-03T02:38:18.909Z,1.30
2018-03-03T02:40:47.176Z,1.40
2018-03-03T02:43:14.651Z,1.40
2018-03-03T02:45:42.224Z,1.50
2018-03-03T02:48:09.724Z,1.70
2018-03-03T02:50:37.253Z,1.70
2018-03-03T02:53:05.494Z,1.60
2018-03-03T02:55:32.997Z,1.50
2018-03-03T02:58:01.245Z,1.90
2018-03-03T03:00:28.729Z,1.80
2018-03-03T03:02:56.996Z,2.00
2018-03-03T03:05:25.242Z,2.00
2018-03-03T03:07:52.730Z,2.00
2018-03-03T03:10:21.008Z,1.80
2018-03-03T03:12:49.248Z,1.50
2018-03-03T03:15:16.719Z,1.50
2018-03-03T03:17:44.222Z,1.60
2018-03-03T03:20:12.465Z,1.60
2018-03-03T03:22:41.444Z,1.80
2018-03-03T03:25:10.125Z,1.50
2018-03-03T03:27:37.604Z,1.40
2018-03-03T03:30:05.846Z,1.60
2018-03-03T03:32:33.349Z,1.50
2018-03-03T03:35:00.912Z,1.40
2018-03-03T03:37:28.380Z,1.20
2018-03-03T03:39:56.638Z,1.70
2018-03-03T03:42:24.111Z,1.60
2018-03-03T03:44:52.370Z,1.80
2018-03-03T03:47:20.604Z,1.90
2018-03-03T03:49:48.082Z,1.80
2018-03-03T03:52:15.563Z,1.60
2018-03-03T03:54:44.548Z,1.90
2018-03-03T03:57:12.049Z,1.90
2018-03-03T03:59:40.290Z,1.90
2018-03-03T04:02:07.770Z,1.80
2018-03-03T04:04:36.029Z,2.10
2018-03-03T04:07:03.505Z,2.10
2018-03-03T04:09:31.744Z,1.90
2018-03-03T04:11:59.228Z,1.80
2018-03-03T04:14:26.697Z,1.90
2018-03-03T04:16:54.965Z,2.10
2018-03-03T04:19:23.217Z,2.10
2018-03-03T04:21:50.684Z,2.10
2018-03-03T04:24:18.173Z,2.20
2018-03-03T04:26:46.414Z,2.00
2018-03-03T04:29:13.916Z,1.90
2018-03-03T04:31:42.161Z,2.10
2018-03-03T04:34:09.640Z,2.10
2018-03-03T04:36:37.895Z,2.40
2018-03-03T04:39:05.430Z,2.30
2018-03-03T04:41:32.900Z,2.50
2018-03-03T04:44:00.396Z,2.40
2018-03-03T04:46:28.633Z,2.40
2018-03-03T04:48:56.108Z,2.40
2018-03-03T04:51:23.601Z,2.50
2018-03-03T04:53:51.857Z,2.60
2018-03-03T04:56:20.839Z,2.50
2018-03-03T04:59:06.025Z,2.50
2018-03-03T05:01:34.451Z,2.60
2018-03-03T05:04:03.393Z,2.50
2018-03-03T05:06:46.722Z,2.40
2018-03-03T05:09:14.220Z,2.50
2018-03-03T05:11:41.693Z,2.40
2018-03-03T05:14:19.898Z,2.50
2018-03-03T05:16:52.981Z,2.40
2018-03-03T05:19:35.359Z,2.30
2018-03-03T05:22:08.493Z,2.20
2018-03-03T05:24:54.696Z,2.30
2018-03-03T05:27:27.768Z,2.20
2018-03-03T05:30:01.017Z,2.20
2018-03-03T05:32:34.258Z,2.30
2018-03-03T05:35:21.524Z,2.20
2018-03-03T05:38:05.709Z,2.20
2018-03-03T05:40:49.698Z,2.20
2018-03-03T05:43:22.874Z,2.10
2018-03-03T05:45:56.080Z,2.20
2018-03-03T05:48:39.228Z,2.20
2018-03-03T05:51:12.428Z,2.10
2018-03-03T05:53:45.712Z,2.20
2018-03-03T05:56:29.010Z,2.20
2018-03-03T05:59:14.400Z,2.30
2018-03-03T06:01:44.724Z,2.20
2018-03-03T06:04:28.929Z,2.20
2018-03-03T06:07:12.234Z,2.20
2018-03-03T06:09:49.616Z,2.20
2018-03-03T06:12:17.091Z,2.20
2018-03-03T06:14:44.564Z,2.20
2018-03-03T06:17:12.069Z,2.30
2018-03-03T06:19:39.545Z,2.30
2018-03-03T06:22:07.021Z,2.20
2018-03-03T06:24:34.511Z,2.20
2018-03-03T06:27:02.781Z,2.20
2018-03-03T06:29:30.254Z,2.10
2018-03-03T06:31:58.528Z,2.30
2018-03-03T06:34:26.769Z,2.30
2018-03-03T06:36:54.242Z,2.30
2018-03-03T06:39:21.813Z,2.30
2018-03-03T06:41:49.284Z,2.30
2018-03-03T06:44:17.568Z,2.30
2018-03-03T06:46:45.825Z,2.30
2018-03-03T06:49:13.296Z,2.20
2018-03-03T06:51:41.532Z,2.30
2018-03-03T06:54:09.013Z,2.20
2018-03-03T06:56:36.529Z,2.30
2018-03-03T06:59:04.026Z,2.40
2018-03-03T07:01:33.002Z,2.80
2018-03-03T07:04:00.477Z,2.80
2018-03-03T07:06:28.725Z,5.10
2018-03-03T07:08:56.194Z,5.10
2018-03-03T07:11:23.685Z,3.90
2018-03-03T07:13:51.932Z,3.20
2018-03-03T07:16:19.405Z,3.20
2018-03-03T07:18:47.652Z,3.00
2018-03-03T07:21:15.121Z,3.00
2018-03-03T07:23:42.613Z,2.80
2018-03-03T07:26:10.172Z,2.70
2018-03-03T07:28:37.650Z,2.70
2018-03-03T07:31:05.933Z,2.50
2018-03-03T07:33:33.405Z,2.50
2018-03-03T07:36:00.883Z,2.60
2018-03-03T07:38:28.368Z,2.50
2018-03-03T07:40:56.096Z,2.60
2018-03-03T07:43:23.598Z,2.50
2018-03-03T07:45:52.605Z,2.60
2018-03-03T07:48:20.848Z,2.70
2018-03-03T07:50:48.348Z,2.60
2018-03-03T07:53:16.588Z,2.70
2018-03-03T07:55:44.061Z,2.70
2018-03-03T07:58:24.057Z,2.50
2018-03-03T08:00:51.525Z,2.40
2018-03-03T08:03:18.995Z,2.70
2018-03-03T08:05:46.484Z,2.80
2018-03-03T08:08:13.958Z,2.90
2018-03-03T08:10:41.428Z,3.00
2018-03-03T08:13:09.693Z,3.40
2018-03-03T08:15:37.974Z,3.50
2018-03-03T08:18:05.448Z,3.40
2018-03-03T08:20:33.710Z,3.50
2018-03-03T08:23:01.269Z,3.40
2018-03-03T08:25:28.741Z,3.50
2018-03-03T08:27:57.000Z,3.50
2018-03-03T08:30:25.240Z,3.70
2018-03-03T08:32:52.716Z,3.60
2018-03-03T08:35:20.196Z,3.50
2018-03-03T08:37:49.177Z,3.40
2018-03-03T08:40:16.670Z,3.50
2018-03-03T08:42:44.908Z,3.20
2018-03-03T08:45:12.384Z,3.20
2018-03-03T08:47:39.882Z,3.90
2018-03-03T08:50:07.400Z,3.60
2018-03-03T08:52:34.896Z,3.60
2018-03-03T08:55:02.371Z,4.10
2018-03-03T08:57:29.844Z,3.70
2018-03-03T08:59:57.325Z,3.60
2018-03-03T09:02:25.625Z,3.30
2018-03-03T09:04:53.942Z,3.20
2018-03-03T09:07:21.421Z,3.10
2018-03-03T09:09:48.983Z,3.10
2018-03-03T09:12:16.927Z,3.20
2018-03-03T09:14:44.406Z,3.10
2018-03-03T09:17:11.909Z,3.10
2018-03-03T09:19:40.189Z,3.20
2018-03-03T09:22:08.430Z,3.20
2018-03-03T09:24:35.925Z,3.10
2018-03-03T09:27:04.164Z,3.10
2018-03-03T09:29:31.685Z,3.00
2018-03-03T09:31:59.181Z,3.00
2018-03-03T09:34:26.652Z,3.00
2018-03-03T09:36:54.129Z,2.90
2018-03-03T09:39:22.388Z,3.10
2018-03-03T09:41:49.864Z,3.00
2018-03-03T09:44:17.336Z,3.00
2018-03-03T09:46:45.593Z,3.10
2018-03-03T09:49:13.838Z,3.00
2018-03-03T09:51:41.338Z,3.00
2018-03-03T09:54:09.612Z,3.10
2018-03-03T09:56:37.085Z,3.00
2018-03-03T09:59:05.348Z,3.00
2018-03-03T10:01:32.933Z,3.00
2018-03-03T10:04:00.344Z,3.10
2018-03-03T10:06:27.832Z,3.20
2018-03-03T10:08:55.340Z,3.20
2018-03-03T10:11:22.841Z,3.00
2018-03-03T10:13:50.313Z,3.10
2018-03-03T10:16:18.619Z,3.10
2018-03-03T10:18:46.832Z,3.20
2018-03-03T10:21:14.312Z,3.10
2018-03-03T10:23:41.797Z,3.20
2018-03-03T10:26:10.056Z,3.30
2018-03-03T10:28:38.296Z,3.40
2018-03-03T10:31:05.768Z,3.30
2018-03-03T10:33:33.257Z,3.30
2018-03-03T10:36:01.496Z,3.30
2018-03-03T10:38:29.085Z,3.30
2018-03-03T10:40:56.560Z,3.30
2018-03-03T10:43:24.801Z,3.30
2018-03-03T10:45:52.292Z,3.20
2018-03-03T10:48:20.530Z,3.30
2018-03-03T10:50:48.078Z,3.20
2018-03-03T10:53:15.503Z,3.20
2018-03-03T10:55:42.976Z,3.20
2018-03-03T10:58:10.468Z,3.20
2018-03-03T11:00:37.950Z,3.20
2018-03-03T11:03:06.212Z,3.10
2018-03-03T11:05:34.915Z,3.30
2018-03-03T11:08:03.159Z,3.40
2018-03-03T11:10:30.636Z,3.60
2018-03-03T11:15:27.257Z,3.10
2018-03-03T11:17:54.729Z,2.60
2018-03-03T11:20:22.224Z,3.00
2018-03-03T11:22:50.464Z,3.30
2018-03-03T11:25:17.948Z,3.30
2018-03-03T11:27:45.443Z,3.30
2018-03-03T11:30:12.916Z,3.30
2018-03-03T11:32:40.392Z,3.30
2018-03-03T11:35:07.888Z,3.40
2018-03-03T11:37:35.368Z,3.30
2018-03-03T11:40:03.614Z,3.30
2018-03-03T11:42:31.889Z,3.30
2018-03-03T11:45:00.132Z,3.30
2018-03-03T11:47:27.624Z,3.20
2018-03-03T11:49:56.737Z,3.20
2018-03-03T11:52:24.462Z,3.10
2018-03-03T11:54:53.150Z,3.10
2018-03-03T11:57:22.014Z,3.10
2018-03-03T11:59:50.176Z,3.10
2018-03-03T12:02:20.738Z,3.30
2018-03-03T12:04:48.993Z,3.20
2018-03-03T12:07:18.004Z,3.30
2018-03-03T12:09:47.297Z,3.70
2018-03-03T12:12:15.896Z,8.50
2018-03-03T12:14:43.970Z,8.80
2018-03-03T12:17:12.291Z,6.60
2018-03-03T12:19:39.796Z,6.50
2018-03-03T12:22:11.713Z,7.20
2018-03-03T12:24:40.534Z,8.40
2018-03-03T12:27:09.239Z,6.10
2018-03-03T12:29:37.956Z,4.90
2018-03-03T12:32:07.452Z,4.30
2018-03-03T12:34:35.531Z,4.20
2018-03-03T12:37:03.231Z,4.10
2018-03-03T12:39:31.808Z,3.70
2018-03-03T12:42:00.892Z,3.70
2018-03-03T12:44:29.639Z,3.60
2018-03-03T12:46:57.137Z,3.60
2018-03-03T12:49:26.516Z,3.80
2018-03-03T12:51:54.190Z,3.60
2018-03-03T12:54:21.688Z,3.50
2018-03-03T12:56:50.102Z,3.40
2018-03-03T12:59:18.296Z,3.30
2018-03-03T13:01:46.988Z,3.30
2018-03-03T13:04:15.752Z,3.30
2018-03-03T13:06:43.540Z,3.20
2018-03-03T13:09:12.675Z,3.30
2018-03-03T13:11:40.244Z,3.20
2018-03-03T13:14:09.177Z,3.30
2018-03-03T13:16:36.701Z,3.30
2018-03-03T13:19:06.888Z,3.50
2018-03-03T13:21:35.745Z,3.40
2018-03-03T13:24:04.224Z,3.60
2018-03-03T13:26:32.364Z,3.60
2018-03-03T13:29:02.008Z,3.70
2018-03-03T13:31:31.105Z,3.60
2018-03-03T13:33:59.178Z,3.60
2018-03-03T13:36:27.974Z,3.60
2018-03-03T13:38:55.450Z,3.40
2018-03-03T13:41:23.434Z,3.30
2018-03-03T13:43:50.912Z,3.40
2018-03-03T13:46:18.417Z,3.40
2018-03-03T13:48:46.008Z,3.30
2018-03-03T13:51:13.487Z,3.30
2018-03-03T13:53:41.418Z,3.30
2018-03-03T13:56:08.993Z,3.30
2018-03-03T13:58:36.528Z,3.20
2018-03-03T14:01:04.019Z,3.20
2018-03-03T14:03:32.325Z,3.20
2018-03-03T14:06:00.583Z,3.10
2018-03-03T14:08:28.140Z,3.10
2018-03-03T14:10:56.521Z,3.20
2018-03-03T14:13:24.776Z,3.20
2018-03-03T14:15:52.281Z,3.10
2018-03-03T14:18:20.632Z,3.40
2018-03-03T14:20:48.159Z,3.30
2018-03-03T14:23:15.669Z,3.30
2018-03-03T14:25:43.161Z,3.30
2018-03-03T14:28:10.696Z,3.40
2018-03-03T14:30:38.962Z,2.90
2018-03-03T14:33:06.446Z,2.90
2018-03-03T14:35:34.729Z,2.90
2018-03-03T14:38:02.224Z,2.80
2018-03-03T14:40:29.710Z,2.80
2018-03-03T14:42:58.730Z,3.10
2018-03-03T14:45:26.982Z,2.80
2018-03-03T14:47:54.530Z,2.80
2018-03-03T14:50:22.045Z,2.90
2018-03-03T14:52:49.617Z,3.00
2018-03-03T14:55:17.102Z,3.10
2018-03-03T14:57:44.666Z,2.70
2018-03-03T15:00:12.152Z,2.70
2018-03-03T15:02:40.539Z,3.00
2018-03-03T15:05:08.814Z,2.80
2018-03-03T15:07:37.089Z,2.80
2018-03-03T15:10:05.338Z,2.90
2018-03-03T15:12:32.995Z,2.80
2018-03-03T15:15:00.468Z,3.00
2018-03-03T15:17:27.980Z,3.00
2018-03-03T15:19:55.462Z,2.90
2018-03-03T15:22:22.949Z,2.70
2018-03-03T15:24:50.504Z,3.10
2018-03-03T15:27:18.018Z,2.90
2018-03-03T15:29:45.493Z,3.00
2018-03-03T15:32:12.990Z,2.90
2018-03-03T15:34:40.635Z,3.10
2018-03-03T15:37:08.132Z,3.20
2018-03-03T15:39:36.434Z,2.60
2018-03-03T15:42:05.389Z,2.60
2018-03-03T15:44:32.914Z,2.60
2018-03-03T15:47:01.229Z,2.60
2018-03-03T15:49:28.716Z,2.60
2018-03-03T15:51:56.260Z,2.70
2018-03-03T15:54:24.516Z,2.60
2018-03-03T15:56:52.800Z,2.80
2018-03-03T15:59:20.288Z,2.80
2018-03-03T16:01:47.848Z,2.80
2018-03-03T16:04:15.320Z,2.70
2018-03-03T16:06:42.809Z,2.70
2018-03-03T16:09:10.280Z,2.80
2018-03-03T16:11:37.810Z,2.60
2018-03-03T16:14:05.288Z,2.70
2018-03-03T16:16:32.764Z,2.80
2018-03-03T16:19:00.261Z,2.60
2018-03-03T16:21:27.738Z,2.50
2018-03-03T16:23:55.213Z,2.60
2018-03-03T16:26:22.703Z,2.60
2018-03-03T16:28:51.677Z,2.30
2018-03-03T16:31:19.152Z,2.30
2018-03-03T16:33:47.420Z,2.20
2018-03-03T16:36:14.892Z,2.10
2018-03-03T16:38:42.364Z,2.30
2018-03-03T16:41:10.638Z,2.50
2018-03-03T16:43:38.116Z,2.40
2018-03-03T16:46:06.580Z,2.60
2018-03-03T16:48:34.820Z,2.50
2018-03-03T16:51:02.299Z,2.50
2018-03-03T16:53:29.797Z,2.70
2018-03-03T16:55:57.271Z,2.60
2018-03-03T16:58:24.740Z,2.60
2018-03-03T17:00:52.253Z,2.70
2018-03-03T17:03:20.536Z,2.60
2018-03-03T17:05:48.189Z,2.50
2018-03-03T17:08:15.793Z,2.70
2018-03-03T17:10:43.261Z,2.60
2018-03-03T17:13:10.771Z,2.50
2018-03-03T17:15:39.012Z,2.70
2018-03-03T17:18:06.484Z,2.70
2018-03-03T17:20:33.966Z,2.80
2018-03-03T17:23:02.242Z,2.90
2018-03-03T17:25:30.508Z,2.70
2018-03-03T17:27:59.710Z,2.60
2018-03-03T17:30:27.304Z,2.60
2018-03-03T17:32:54.913Z,2.60
2018-03-03T17:35:22.646Z,2.50
2018-03-03T17:37:50.208Z,2.40
2018-03-03T17:40:17.729Z,2.50
2018-03-03T17:42:46.007Z,2.40
2018-03-03T17:45:14.377Z,2.40
2018-03-03T17:47:43.387Z,2.40
2018-03-03T17:50:11.644Z,2.50
2018-03-03T17:52:39.361Z,2.50
2018-03-03T17:55:06.884Z,2.50
2018-03-03T17:57:35.171Z,2.30
2018-03-03T18:00:03.409Z,2.30
2018-03-03T18:02:30.900Z,2.30
2018-03-03T18:04:59.135Z,2.30
2018-03-03T18:07:26.608Z,2.20
2018-03-03T18:09:54.290Z,2.40
2018-03-03T18:12:22.556Z,2.40
2018-03-03T18:14:50.808Z,2.40
2018-03-03T18:17:18.305Z,2.30
2018-03-03T18:19:46.709Z,2.50
2018-03-03T18:22:14.981Z,2.70
2018-03-03T18:24:43.218Z,2.60
2018-03-03T18:27:10.709Z,2.60
2018-03-03T18:29:38.956Z,2.50
2018-03-03T18:32:07.291Z,2.50
2018-03-03T18:34:34.792Z,2.50
2018-03-03T18:37:02.336Z,2.40
2018-03-03T18:39:29.831Z,2.40
2018-03-03T18:41:58.153Z,2.40
2018-03-03T18:44:25.683Z,2.30
2018-03-03T18:46:53.273Z,2.40
2018-03-03T18:49:21.584Z,2.60
2018-03-03T18:51:49.164Z,2.60
2018-03-03T18:54:18.314Z,2.60
2018-03-03T18:56:45.924Z,2.60
2018-03-03T18:59:13.542Z,2.50
2018-03-03T19:01:41.066Z,2.60
2018-03-03T19:04:08.587Z,3.30
2018-03-03T19:06:36.079Z,4.30
2018-03-03T19:09:04.348Z,4.50
2018-03-03T19:11:32.754Z,3.50
2018-03-03T19:14:00.263Z,3.50
2018-03-03T19:16:27.894Z,3.10
2018-03-03T19:18:56.309Z,2.90
2018-03-03T19:21:23.785Z,2.80
2018-03-03T19:23:52.102Z,2.90
2018-03-03T19:26:19.623Z,2.80
2018-03-03T19:28:47.933Z,2.80
2018-03-03T19:31:15.413Z,2.80
2018-03-03T19:33:42.945Z,2.60
2018-03-03T19:36:10.427Z,2.90
2018-03-03T19:38:37.934Z,2.80
2018-03-03T19:41:05.555Z,2.70
2018-03-03T19:43:33.059Z,2.70
2018-03-03T19:46:00.613Z,3.00
2018-03-03T19:48:29.599Z,2.60
2018-03-03T19:50:57.084Z,2.60
2018-03-03T19:53:25.336Z,2.90
2018-03-03T19:55:52.861Z,2.80
2018-03-03T19:58:20.422Z,2.80
2018-03-03T20:00:47.929Z,2.90
2018-03-03T20:03:15.566Z,3.00
2018-03-03T20:05:43.096Z,3.20
2018-03-03T20:08:10.754Z,3.10
2018-03-03T20:10:38.233Z,2.90
2018-03-03T20:13:05.760Z,2.90
2018-03-03T20:15:33.242Z,2.90
2018-03-03T20:18:00.740Z,2.90
2018-03-03T20:20:28.241Z,2.90
2018-03-03T20:22:55.745Z,2.90
2018-03-03T20:25:23.378Z,2.90
2018-03-03T20:27:50.869Z,3.00
2018-03-03T20:30:18.406Z,3.10
2018-03-03T20:32:46.480Z,3.20
2018-03-03T20:35:14.443Z,3.20
2018-03-03T20:37:42.096Z,3.20
2018-03-03T20:40:09.733Z,3.40
2018-03-03T20:42:38.158Z,3.50
2018-03-03T20:45:05.705Z,3.50
2018-03-03T20:47:33.888Z,3.50
2018-03-03T20:50:01.372Z,3.30
2018-03-03T20:52:29.444Z,3.30
2018-03-03T20:54:57.597Z,3.20
2018-03-03T20:57:25.872Z,3.30
2018-03-03T20:59:54.910Z,3.50
2018-03-03T21:02:22.609Z,3.30
2018-03-03T21:04:50.709Z,3.40
2018-03-03T21:07:19.384Z,3.20
2018-03-03T21:09:47.391Z,3.10
2018-03-03T21:12:17.562Z,3.10
2018-03-03T21:14:45.967Z,3.30
2018-03-03T21:17:13.447Z,3.10
2018-03-03T21:19:40.978Z,3.20
2018-03-03T21:22:08.469Z,3.30
2018-03-03T21:24:35.974Z,3.30
2018-03-03T21:27:03.522Z,3.20
2018-03-03T21:29:31.822Z,3.30
2018-03-03T21:31:59.358Z,3.30
2018-03-03T21:34:27.609Z,3.50
2018-03-03T21:36:55.209Z,3.40
2018-03-03T21:39:23.470Z,3.60
2018-03-03T21:41:51.773Z,3.60
2018-03-03T21:44:19.248Z,3.50
2018-03-03T21:46:47.273Z,3.60
2018-03-03T21:49:17.332Z,3.50
2018-03-03T21:51:45.204Z,3.40
2018-03-03T21:54:12.730Z,3.50
2018-03-03T21:56:40.966Z,3.40
2018-03-03T21:59:10.199Z,3.30
2018-03-03T22:01:39.544Z,3.50
2018-03-03T22:04:08.087Z,3.50
2018-03-03T22:06:37.457Z,3.40
2018-03-03T22:09:04.943Z,3.40
2018-03-03T22:11:33.180Z,3.40
2018-03-03T22:14:00.661Z,3.40
2018-03-03T22:16:28.137Z,3.40
2018-03-03T22:18:56.405Z,3.60
2018-03-03T22:21:23.911Z,3.60
2018-03-03T22:23:51.380Z,3.70
2018-03-03T22:26:18.881Z,3.70
2018-03-03T22:28:47.116Z,3.80
2018-03-03T22:31:14.593Z,3.70
2018-03-03T22:33:42.085Z,3.70
2018-03-03T22:36:09.552Z,3.70
2018-03-03T22:38:37.792Z,3.70
2018-03-03T22:41:05.276Z,3.60
2018-03-03T22:43:32.843Z,3.80
2018-03-03T22:46:01.116Z,3.40
2018-03-03T22:48:29.369Z,3.50
2018-03-03T22:50:56.849Z,3.50
2018-03-03T22:53:24.341Z,3.60
2018-03-03T22:55:51.814Z,3.60
2018-03-03T22:58:19.293Z,3.70
2018-03-03T23:00:46.776Z,3.60
2018-03-03T23:03:14.274Z,3.60
2018-03-03T23:05:41.776Z,3.70
2018-03-03T23:08:09.257Z,3.60
2018-03-03T23:10:38.258Z,3.50
2018-03-03T23:13:06.527Z,3.60
2018-03-03T23:15:35.506Z,3.60
2018-03-03T23:18:02.982Z,3.60
2018-03-03T23:20:30.489Z,3.50
2018-03-03T23:22:57.964Z,3.50
2018-03-03T23:25:25.434Z,3.60
2018-03-03T23:27:52.936Z,3.50
2018-03-03T23:30:21.181Z,3.40
2018-03-03T23:32:48.654Z,3.30
2018-03-03T23:35:16.151Z,3.30
2018-03-03T23:37:43.635Z,3.50
2018-03-03T23:40:11.105Z,3.30
2018-03-03T23:42:38.696Z,3.30
2018-03-03T23:45:06.256Z,3.40
2018-03-03T23:47:33.725Z,3.50
2018-03-03T23:50:01.980Z,3.40
2018-03-03T23:52:30.956Z,3.20
2018-03-03T23:54:58.433Z,3.20
2018-03-03T23:57:27.433Z,3.20
2018-03-03T23:59:55.142Z,3.20
